sensor_id;sensor_type;location;lat;lon;timestamp;temperature;humidity
32753;DHT22;19121;52.428;10.816;2023-08-06T00:01:11;24.30;55.30
32753;DHT22;19121;52.428;10.816;2023-08-06T00:03:37;24.20;55.30
32753;DHT22;19121;52.428;10.816;2023-08-06T00:06:04;24.20;55.30
32753;DHT22;19121;52.428;10.816;2023-08-06T00:08:29;24.20;55.30
32753;DHT22;19121;52.428;10.816;2023-08-06T00:10:55;24.20;55.30
32753;DHT22;19121;52.428;10.816;2023-08-06T00:13:20;24.20;55.30
32753;DHT22;19121;52.428;10.816;2023-08-06T00:15:45;24.10;55.20
32753;DHT22;19121;52.428;10.816;2023-08-06T00:18:11;24.20;55.30
32753;DHT22;19121;52.428;10.816;2023-08-06T00:20:38;24.10;55.20
32753;DHT22;19121;52.428;10.816;2023-08-06T00:23:04;24.20;55.30
32753;DHT22;19121;52.428;10.816;2023-08-06T00:25:29;24.10;55.30
32753;DHT22;19121;52.428;10.816;2023-08-06T00:27:54;24.10;55.20
32753;DHT22;19121;52.428;10.816;2023-08-06T00:30:21;24.10;55.30
32753;DHT22;19121;52.428;10.816;2023-08-06T00:32:47;24.10;55.90
32753;DHT22;19121;52.428;10.816;2023-08-06T00:35:12;24.10;55.30
32753;DHT22;19121;52.428;10.816;2023-08-06T00:37:38;24.10;55.30
32753;DHT22;19121;52.428;10.816;2023-08-06T00:40:04;24.10;55.30
32753;DHT22;19121;52.428;10.816;2023-08-06T00:42:30;24.10;55.30
32753;DHT22;19121;52.428;10.816;2023-08-06T00:44:55;24.10;55.30
32753;DHT22;19121;52.428;10.816;2023-08-06T00:47:21;24.10;55.40
32753;DHT22;19121;52.428;10.816;2023-08-06T00:49:46;24.10;55.40
32753;DHT22;19121;52.428;10.816;2023-08-06T00:52:12;24.10;55.30
32753;DHT22;19121;52.428;10.816;2023-08-06T00:54:39;24.10;55.40
32753;DHT22;19121;52.428;10.816;2023-08-06T00:57:04;24.10;55.30
32753;DHT22;19121;52.428;10.816;2023-08-06T00:59:31;24.10;55.40
32753;DHT22;19121;52.428;10.816;2023-08-06T01:01:56;24.10;55.40
32753;DHT22;19121;52.428;10.816;2023-08-06T01:04:22;24.10;55.40
32753;DHT22;19121;52.428;10.816;2023-08-06T01:06:48;24.10;55.40
32753;DHT22;19121;52.428;10.816;2023-08-06T01:14:37;24.00;55.30
32753;DHT22;19121;52.428;10.816;2023-08-06T01:17:09;24.00;55.40
32753;DHT22;19121;52.428;10.816;2023-08-06T01:19:34;24.00;55.40
32753;DHT22;19121;52.428;10.816;2023-08-06T01:22:00;24.00;55.40
32753;DHT22;19121;52.428;10.816;2023-08-06T01:24:25;24.00;55.30
32753;DHT22;19121;52.428;10.816;2023-08-06T01:26:54;24.00;55.40
32753;DHT22;19121;52.428;10.816;2023-08-06T01:29:34;24.00;55.40
32753;DHT22;19121;52.428;10.816;2023-08-06T01:32:00;24.00;55.40
32753;DHT22;19121;52.428;10.816;2023-08-06T01:34:27;24.00;55.40
32753;DHT22;19121;52.428;10.816;2023-08-06T01:36:53;24.00;55.40
32753;DHT22;19121;52.428;10.816;2023-08-06T01:39:19;24.00;55.50
32753;DHT22;19121;52.428;10.816;2023-08-06T01:41:49;24.00;55.40
32753;DHT22;19121;52.428;10.816;2023-08-06T01:44:15;24.00;55.40
32753;DHT22;19121;52.428;10.816;2023-08-06T01:46:40;24.00;55.40
32753;DHT22;19121;52.428;10.816;2023-08-06T01:49:06;24.00;55.40
32753;DHT22;19121;52.428;10.816;2023-08-06T01:51:31;24.00;55.40
32753;DHT22;19121;52.428;10.816;2023-08-06T01:53:57;24.00;55.40
32753;DHT22;19121;52.428;10.816;2023-08-06T01:56:22;24.00;55.50
32753;DHT22;19121;52.428;10.816;2023-08-06T01:58:48;24.00;55.40
32753;DHT22;19121;52.428;10.816;2023-08-06T02:01:13;24.00;55.40
32753;DHT22;19121;52.428;10.816;2023-08-06T02:03:38;23.90;55.40
32753;DHT22;19121;52.428;10.816;2023-08-06T02:06:04;24.00;55.50
32753;DHT22;19121;52.428;10.816;2023-08-06T02:08:29;24.00;55.50
32753;DHT22;19121;52.428;10.816;2023-08-06T02:10:55;23.90;55.40
32753;DHT22;19121;52.428;10.816;2023-08-06T02:13:20;23.90;55.40
32753;DHT22;19121;52.428;10.816;2023-08-06T02:15:46;23.90;55.40
32753;DHT22;19121;52.428;10.816;2023-08-06T02:18:14;23.90;55.40
32753;DHT22;19121;52.428;10.816;2023-08-06T02:20:42;23.90;55.40
32753;DHT22;19121;52.428;10.816;2023-08-06T02:23:08;23.90;55.40
32753;DHT22;19121;52.428;10.816;2023-08-06T02:25:34;23.90;55.40
32753;DHT22;19121;52.428;10.816;2023-08-06T02:27:59;23.90;55.40
32753;DHT22;19121;52.428;10.816;2023-08-06T02:30:25;23.90;55.40
32753;DHT22;19121;52.428;10.816;2023-08-06T02:32:50;23.90;55.40
32753;DHT22;19121;52.428;10.816;2023-08-06T02:35:16;23.90;55.40
32753;DHT22;19121;52.428;10.816;2023-08-06T02:37:41;23.90;55.40
32753;DHT22;19121;52.428;10.816;2023-08-06T02:40:07;23.90;55.50
32753;DHT22;19121;52.428;10.816;2023-08-06T02:42:32;23.90;55.40
32753;DHT22;19121;52.428;10.816;2023-08-06T02:44:58;23.90;55.40
32753;DHT22;19121;52.428;10.816;2023-08-06T02:47:23;23.90;55.40
32753;DHT22;19121;52.428;10.816;2023-08-06T02:49:49;23.90;55.50
32753;DHT22;19121;52.428;10.816;2023-08-06T02:52:14;23.90;55.50
32753;DHT22;19121;52.428;10.816;2023-08-06T02:54:40;23.80;55.40
32753;DHT22;19121;52.428;10.816;2023-08-06T02:57:05;23.80;55.40
32753;DHT22;19121;52.428;10.816;2023-08-06T02:59:31;23.80;55.40
32753;DHT22;19121;52.428;10.816;2023-08-06T03:01:57;23.90;55.40
32753;DHT22;19121;52.428;10.816;2023-08-06T03:04:22;23.80;55.40
32753;DHT22;19121;52.428;10.816;2023-08-06T03:06:51;23.80;55.40
32753;DHT22;19121;52.428;10.816;2023-08-06T03:09:19;23.80;55.40
32753;DHT22;19121;52.428;10.816;2023-08-06T03:11:44;23.80;55.50
32753;DHT22;19121;52.428;10.816;2023-08-06T03:14:10;23.80;56.00
32753;DHT22;19121;52.428;10.816;2023-08-06T03:16:35;23.80;55.50
32753;DHT22;19121;52.428;10.816;2023-08-06T03:19:01;23.90;55.50
32753;DHT22;19121;52.428;10.816;2023-08-06T03:21:26;23.80;55.50
32753;DHT22;19121;52.428;10.816;2023-08-06T03:23:51;23.80;55.50
32753;DHT22;19121;52.428;10.816;2023-08-06T03:26:17;23.80;55.50
32753;DHT22;19121;52.428;10.816;2023-08-06T03:28:42;23.80;55.50
32753;DHT22;19121;52.428;10.816;2023-08-06T03:31:08;23.80;56.10
32753;DHT22;19121;52.428;10.816;2023-08-06T03:33:33;23.80;55.50
32753;DHT22;19121;52.428;10.816;2023-08-06T03:35:59;23.80;55.50
32753;DHT22;19121;52.428;10.816;2023-08-06T03:38:24;23.80;55.60
32753;DHT22;19121;52.428;10.816;2023-08-06T03:40:50;23.80;55.60
32753;DHT22;19121;52.428;10.816;2023-08-06T03:43:15;23.80;55.60
32753;DHT22;19121;52.428;10.816;2023-08-06T03:45:41;23.80;55.50
32753;DHT22;19121;52.428;10.816;2023-08-06T03:48:07;23.70;55.50
32753;DHT22;19121;52.428;10.816;2023-08-06T03:50:32;23.80;55.50
32753;DHT22;19121;52.428;10.816;2023-08-06T03:52:57;23.70;55.50
32753;DHT22;19121;52.428;10.816;2023-08-06T03:55:23;23.70;55.50
32753;DHT22;19121;52.428;10.816;2023-08-06T03:57:48;23.80;55.50
32753;DHT22;19121;52.428;10.816;2023-08-06T04:00:14;23.80;55.50
32753;DHT22;19121;52.428;10.816;2023-08-06T04:02:39;23.70;55.50
32753;DHT22;19121;52.428;10.816;2023-08-06T04:05:05;23.70;55.50
32753;DHT22;19121;52.428;10.816;2023-08-06T04:07:30;23.70;55.50
32753;DHT22;19121;52.428;10.816;2023-08-06T04:10:00;23.70;55.50
32753;DHT22;19121;52.428;10.816;2023-08-06T04:12:25;23.70;55.50
32753;DHT22;19121;52.428;10.816;2023-08-06T04:14:51;23.70;55.50
32753;DHT22;19121;52.428;10.816;2023-08-06T04:17:17;23.70;55.50
32753;DHT22;19121;52.428;10.816;2023-08-06T04:19:52;23.70;55.50
32753;DHT22;19121;52.428;10.816;2023-08-06T04:22:18;23.70;55.50
32753;DHT22;19121;52.428;10.816;2023-08-06T04:24:44;23.70;55.50
32753;DHT22;19121;52.428;10.816;2023-08-06T04:27:09;23.70;55.50
32753;DHT22;19121;52.428;10.816;2023-08-06T04:29:35;23.70;55.50
32753;DHT22;19121;52.428;10.816;2023-08-06T04:32:01;23.70;55.50
32753;DHT22;19121;52.428;10.816;2023-08-06T04:34:26;23.70;55.60
32753;DHT22;19121;52.428;10.816;2023-08-06T04:36:52;23.70;55.50
32753;DHT22;19121;52.428;10.816;2023-08-06T04:39:17;23.70;55.60
32753;DHT22;19121;52.428;10.816;2023-08-06T04:41:43;23.70;55.50
32753;DHT22;19121;52.428;10.816;2023-08-06T04:44:08;23.70;55.50
32753;DHT22;19121;52.428;10.816;2023-08-06T04:46:34;23.60;55.50
32753;DHT22;19121;52.428;10.816;2023-08-06T04:48:59;23.60;55.50
32753;DHT22;19121;52.428;10.816;2023-08-06T04:51:24;23.70;55.60
32753;DHT22;19121;52.428;10.816;2023-08-06T04:53:50;23.70;55.50
32753;DHT22;19121;52.428;10.816;2023-08-06T04:56:15;23.70;55.50
32753;DHT22;19121;52.428;10.816;2023-08-06T04:58:41;23.60;55.50
32753;DHT22;19121;52.428;10.816;2023-08-06T05:01:06;23.60;55.60
32753;DHT22;19121;52.428;10.816;2023-08-06T05:03:31;23.60;55.50
32753;DHT22;19121;52.428;10.816;2023-08-06T05:05:57;23.60;55.50
32753;DHT22;19121;52.428;10.816;2023-08-06T05:08:22;23.70;55.60
32753;DHT22;19121;52.428;10.816;2023-08-06T05:10:48;23.60;55.50
32753;DHT22;19121;52.428;10.816;2023-08-06T05:13:13;23.60;55.50
32753;DHT22;19121;52.428;10.816;2023-08-06T05:15:39;23.60;55.60
32753;DHT22;19121;52.428;10.816;2023-08-06T05:18:07;23.60;55.60
32753;DHT22;19121;52.428;10.816;2023-08-06T05:20:35;23.60;55.60
32753;DHT22;19121;52.428;10.816;2023-08-06T05:23:01;23.60;55.50
32753;DHT22;19121;52.428;10.816;2023-08-06T05:25:26;23.60;55.60
32753;DHT22;19121;52.428;10.816;2023-08-06T05:27:51;23.60;55.60
32753;DHT22;19121;52.428;10.816;2023-08-06T05:30:18;23.60;55.60
32753;DHT22;19121;52.428;10.816;2023-08-06T05:32:43;23.60;55.60
32753;DHT22;19121;52.428;10.816;2023-08-06T05:35:09;23.60;55.60
32753;DHT22;19121;52.428;10.816;2023-08-06T05:37:34;23.60;55.60
32753;DHT22;19121;52.428;10.816;2023-08-06T05:40:00;23.60;55.60
32753;DHT22;19121;52.428;10.816;2023-08-06T05:42:26;23.60;55.60
32753;DHT22;19121;52.428;10.816;2023-08-06T05:44:52;23.60;55.60
32753;DHT22;19121;52.428;10.816;2023-08-06T05:47:17;23.60;55.50
32753;DHT22;19121;52.428;10.816;2023-08-06T05:49:45;23.60;55.60
32753;DHT22;19121;52.428;10.816;2023-08-06T05:52:10;23.60;55.60
32753;DHT22;19121;52.428;10.816;2023-08-06T05:54:35;23.60;55.60
32753;DHT22;19121;52.428;10.816;2023-08-06T05:57:01;23.60;55.60
32753;DHT22;19121;52.428;10.816;2023-08-06T05:59:26;23.60;55.60
32753;DHT22;19121;52.428;10.816;2023-08-06T06:01:52;23.60;55.60
32753;DHT22;19121;52.428;10.816;2023-08-06T06:04:17;23.60;55.60
32753;DHT22;19121;52.428;10.816;2023-08-06T06:06:43;23.60;55.60
32753;DHT22;19121;52.428;10.816;2023-08-06T06:09:08;23.60;55.60
32753;DHT22;19121;52.428;10.816;2023-08-06T06:11:34;23.60;55.50
32753;DHT22;19121;52.428;10.816;2023-08-06T06:13:59;23.60;55.60
32753;DHT22;19121;52.428;10.816;2023-08-06T06:16:24;23.60;55.60
32753;DHT22;19121;52.428;10.816;2023-08-06T06:18:50;23.60;55.60
32753;DHT22;19121;52.428;10.816;2023-08-06T06:21:16;23.60;55.60
32753;DHT22;19121;52.428;10.816;2023-08-06T06:23:41;23.60;55.60
32753;DHT22;19121;52.428;10.816;2023-08-06T06:26:07;23.60;55.60
32753;DHT22;19121;52.428;10.816;2023-08-06T06:28:32;23.60;55.50
32753;DHT22;19121;52.428;10.816;2023-08-06T06:31:00;23.60;55.50
32753;DHT22;19121;52.428;10.816;2023-08-06T06:33:26;23.60;56.20
32753;DHT22;19121;52.428;10.816;2023-08-06T06:35:52;23.60;55.50
32753;DHT22;19121;52.428;10.816;2023-08-06T06:38:17;23.60;55.60
32753;DHT22;19121;52.428;10.816;2023-08-06T06:40:42;23.50;55.50
32753;DHT22;19121;52.428;10.816;2023-08-06T06:43:08;23.60;55.60
32753;DHT22;19121;52.428;10.816;2023-08-06T06:45:33;23.60;55.60
32753;DHT22;19121;52.428;10.816;2023-08-06T06:47:59;23.60;55.60
32753;DHT22;19121;52.428;10.816;2023-08-06T06:50:24;23.60;55.60
32753;DHT22;19121;52.428;10.816;2023-08-06T06:52:51;23.60;55.70
32753;DHT22;19121;52.428;10.816;2023-08-06T06:55:16;23.60;55.60
32753;DHT22;19121;52.428;10.816;2023-08-06T06:57:42;23.60;55.60
32753;DHT22;19121;52.428;10.816;2023-08-06T07:00:07;23.60;55.60
32753;DHT22;19121;52.428;10.816;2023-08-06T07:02:33;23.60;55.60
32753;DHT22;19121;52.428;10.816;2023-08-06T07:04:58;23.60;55.50
32753;DHT22;19121;52.428;10.816;2023-08-06T07:07:24;23.60;55.60
32753;DHT22;19121;52.428;10.816;2023-08-06T07:09:49;23.60;55.60
32753;DHT22;19121;52.428;10.816;2023-08-06T07:12:15;23.60;55.60
32753;DHT22;19121;52.428;10.816;2023-08-06T07:14:40;23.60;55.60
32753;DHT22;19121;52.428;10.816;2023-08-06T07:17:05;23.60;55.60
32753;DHT22;19121;52.428;10.816;2023-08-06T07:19:31;23.60;55.60
32753;DHT22;19121;52.428;10.816;2023-08-06T07:21:56;23.60;55.60
32753;DHT22;19121;52.428;10.816;2023-08-06T07:24:22;23.70;55.60
32753;DHT22;19121;52.428;10.816;2023-08-06T07:26:47;23.60;55.60
32753;DHT22;19121;52.428;10.816;2023-08-06T07:29:13;23.60;55.60
32753;DHT22;19121;52.428;10.816;2023-08-06T07:31:39;23.60;55.60
32753;DHT22;19121;52.428;10.816;2023-08-06T07:34:05;23.60;55.70
32753;DHT22;19121;52.428;10.816;2023-08-06T07:36:30;23.60;56.20
32753;DHT22;19121;52.428;10.816;2023-08-06T07:38:57;23.60;55.70
32753;DHT22;19121;52.428;10.816;2023-08-06T07:41:22;23.60;55.70
32753;DHT22;19121;52.428;10.816;2023-08-06T07:43:48;23.60;55.70
32753;DHT22;19121;52.428;10.816;2023-08-06T07:46:13;23.60;55.70
32753;DHT22;19121;52.428;10.816;2023-08-06T07:48:39;23.60;56.20
32753;DHT22;19121;52.428;10.816;2023-08-06T07:51:04;23.60;55.60
32753;DHT22;19121;52.428;10.816;2023-08-06T07:53:30;23.60;55.70
32753;DHT22;19121;52.428;10.816;2023-08-06T07:55:56;23.60;55.70
32753;DHT22;19121;52.428;10.816;2023-08-06T07:58:22;23.70;55.80
32753;DHT22;19121;52.428;10.816;2023-08-06T08:00:48;23.60;55.70
32753;DHT22;19121;52.428;10.816;2023-08-06T08:03:14;23.60;55.70
32753;DHT22;19121;52.428;10.816;2023-08-06T08:05:39;23.60;55.70
32753;DHT22;19121;52.428;10.816;2023-08-06T08:08:05;23.70;55.70
32753;DHT22;19121;52.428;10.816;2023-08-06T08:10:31;23.60;55.70
32753;DHT22;19121;52.428;10.816;2023-08-06T08:12:56;23.60;55.70
32753;DHT22;19121;52.428;10.816;2023-08-06T08:15:21;23.60;55.70
32753;DHT22;19121;52.428;10.816;2023-08-06T08:17:47;23.70;55.70
32753;DHT22;19121;52.428;10.816;2023-08-06T08:20:13;23.70;55.70
32753;DHT22;19121;52.428;10.816;2023-08-06T08:22:38;23.70;55.70
32753;DHT22;19121;52.428;10.816;2023-08-06T08:25:04;23.70;55.70
32753;DHT22;19121;52.428;10.816;2023-08-06T08:27:30;23.70;55.70
32753;DHT22;19121;52.428;10.816;2023-08-06T08:29:56;23.70;55.80
32753;DHT22;19121;52.428;10.816;2023-08-06T08:32:21;23.70;55.70
32753;DHT22;19121;52.428;10.816;2023-08-06T08:34:46;23.70;55.70
32753;DHT22;19121;52.428;10.816;2023-08-06T08:37:12;23.70;55.70
32753;DHT22;19121;52.428;10.816;2023-08-06T08:39:38;23.80;55.70
32753;DHT22;19121;52.428;10.816;2023-08-06T08:42:05;23.80;55.70
32753;DHT22;19121;52.428;10.816;2023-08-06T08:44:32;23.80;55.70
32753;DHT22;19121;52.428;10.816;2023-08-06T08:46:59;23.80;55.70
32753;DHT22;19121;52.428;10.816;2023-08-06T08:49:25;23.80;55.60
32753;DHT22;19121;52.428;10.816;2023-08-06T08:51:51;23.80;55.70
32753;DHT22;19121;52.428;10.816;2023-08-06T08:54:18;23.90;55.60
32753;DHT22;19121;52.428;10.816;2023-08-06T08:56:43;24.00;55.70
32753;DHT22;19121;52.428;10.816;2023-08-06T08:59:09;23.90;55.60
32753;DHT22;19121;52.428;10.816;2023-08-06T09:01:35;24.00;55.60
32753;DHT22;19121;52.428;10.816;2023-08-06T09:04:01;24.00;55.60
32753;DHT22;19121;52.428;10.816;2023-08-06T09:06:27;24.00;55.50
32753;DHT22;19121;52.428;10.816;2023-08-06T09:09:08;24.00;55.50
32753;DHT22;19121;52.428;10.816;2023-08-06T09:11:39;24.00;55.50
32753;DHT22;19121;52.428;10.816;2023-08-06T09:14:07;24.00;55.50
32753;DHT22;19121;52.428;10.816;2023-08-06T09:16:36;24.00;55.40
32753;DHT22;19121;52.428;10.816;2023-08-06T09:19:10;24.10;56.00
32753;DHT22;19121;52.428;10.816;2023-08-06T09:21:38;24.10;55.40
32753;DHT22;19121;52.428;10.816;2023-08-06T09:24:07;24.10;55.30
32753;DHT22;19121;52.428;10.816;2023-08-06T09:26:35;24.10;55.30
32753;DHT22;19121;52.428;10.816;2023-08-06T09:29:01;24.10;55.30
32753;DHT22;19121;52.428;10.816;2023-08-06T09:31:33;24.10;55.30
32753;DHT22;19121;52.428;10.816;2023-08-06T09:33:59;24.10;55.30
32753;DHT22;19121;52.428;10.816;2023-08-06T09:36:25;24.20;55.40
32753;DHT22;19121;52.428;10.816;2023-08-06T09:38:50;24.20;55.40
32753;DHT22;19121;52.428;10.816;2023-08-06T09:41:26;24.20;55.40
32753;DHT22;19121;52.428;10.816;2023-08-06T09:43:52;24.20;55.40
32753;DHT22;19121;52.428;10.816;2023-08-06T09:46:17;24.20;55.40
32753;DHT22;19121;52.428;10.816;2023-08-06T09:48:48;24.30;55.40
32753;DHT22;19121;52.428;10.816;2023-08-06T09:51:15;24.30;55.40
32753;DHT22;19121;52.428;10.816;2023-08-06T09:53:42;24.30;55.30
32753;DHT22;19121;52.428;10.816;2023-08-06T09:56:07;24.30;55.30
32753;DHT22;19121;52.428;10.816;2023-08-06T09:58:34;24.30;55.30
32753;DHT22;19121;52.428;10.816;2023-08-06T10:01:02;24.40;55.30
32753;DHT22;19121;52.428;10.816;2023-08-06T10:03:28;24.40;55.30
32753;DHT22;19121;52.428;10.816;2023-08-06T10:05:55;24.30;55.20
32753;DHT22;19121;52.428;10.816;2023-08-06T10:08:29;24.40;55.20
32753;DHT22;19121;52.428;10.816;2023-08-06T10:10:54;24.40;55.20
32753;DHT22;19121;52.428;10.816;2023-08-06T10:13:20;24.40;55.10
32753;DHT22;19121;52.428;10.816;2023-08-06T10:15:47;24.50;55.20
32753;DHT22;19121;52.428;10.816;2023-08-06T10:18:13;24.50;55.40
32753;DHT22;19121;52.428;10.816;2023-08-06T10:20:43;24.50;55.20
32753;DHT22;19121;52.428;10.816;2023-08-06T10:23:08;24.50;55.20
32753;DHT22;19121;52.428;10.816;2023-08-06T10:25:34;24.50;55.20
32753;DHT22;19121;52.428;10.816;2023-08-06T10:28:00;24.50;55.10
32753;DHT22;19121;52.428;10.816;2023-08-06T10:30:26;24.50;55.20
32753;DHT22;19121;52.428;10.816;2023-08-06T10:32:53;24.50;55.10
32753;DHT22;19121;52.428;10.816;2023-08-06T10:35:28;24.60;55.10
32753;DHT22;19121;52.428;10.816;2023-08-06T10:38:05;24.60;55.10
32753;DHT22;19121;52.428;10.816;2023-08-06T10:40:31;24.60;55.10
32753;DHT22;19121;52.428;10.816;2023-08-06T10:43:01;24.60;55.00
32753;DHT22;19121;52.428;10.816;2023-08-06T10:45:26;24.60;55.00
32753;DHT22;19121;52.428;10.816;2023-08-06T10:47:54;24.60;55.00
32753;DHT22;19121;52.428;10.816;2023-08-06T10:50:21;24.60;55.00
32753;DHT22;19121;52.428;10.816;2023-08-06T10:52:47;24.70;55.00
32753;DHT22;19121;52.428;10.816;2023-08-06T10:55:22;24.70;55.10
32753;DHT22;19121;52.428;10.816;2023-08-06T10:57:48;24.70;55.00
32753;DHT22;19121;52.428;10.816;2023-08-06T11:00:13;24.70;55.00
32753;DHT22;19121;52.428;10.816;2023-08-06T11:02:39;24.70;55.00
32753;DHT22;19121;52.428;10.816;2023-08-06T11:05:08;24.70;55.00
32753;DHT22;19121;52.428;10.816;2023-08-06T11:07:34;24.80;55.00
32753;DHT22;19121;52.428;10.816;2023-08-06T11:10:06;24.80;55.00
32753;DHT22;19121;52.428;10.816;2023-08-06T11:12:32;24.80;55.00
32753;DHT22;19121;52.428;10.816;2023-08-06T11:14:58;24.80;55.00
32753;DHT22;19121;52.428;10.816;2023-08-06T11:17:23;24.80;55.00
32753;DHT22;19121;52.428;10.816;2023-08-06T11:19:49;24.80;55.00
32753;DHT22;19121;52.428;10.816;2023-08-06T11:22:15;24.80;55.00
32753;DHT22;19121;52.428;10.816;2023-08-06T11:24:41;24.90;55.10
32753;DHT22;19121;52.428;10.816;2023-08-06T11:27:13;24.90;55.00
32753;DHT22;19121;52.428;10.816;2023-08-06T11:29:40;24.90;55.00
32753;DHT22;19121;52.428;10.816;2023-08-06T11:32:05;24.90;55.00
32753;DHT22;19121;52.428;10.816;2023-08-06T11:34:31;24.90;55.00
32753;DHT22;19121;52.428;10.816;2023-08-06T11:36:56;24.90;55.00
32753;DHT22;19121;52.428;10.816;2023-08-06T11:39:22;24.90;55.00
32753;DHT22;19121;52.428;10.816;2023-08-06T11:41:47;24.90;55.00
32753;DHT22;19121;52.428;10.816;2023-08-06T11:44:13;24.90;55.00
32753;DHT22;19121;52.428;10.816;2023-08-06T11:46:49;24.90;55.00
32753;DHT22;19121;52.428;10.816;2023-08-06T11:49:14;25.00;55.00
32753;DHT22;19121;52.428;10.816;2023-08-06T11:51:40;25.00;54.90
32753;DHT22;19121;52.428;10.816;2023-08-06T11:54:05;25.00;54.90
32753;DHT22;19121;52.428;10.816;2023-08-06T11:56:32;25.00;54.90
32753;DHT22;19121;52.428;10.816;2023-08-06T11:58:57;25.00;54.90
32753;DHT22;19121;52.428;10.816;2023-08-06T12:01:23;25.00;54.80
32753;DHT22;19121;52.428;10.816;2023-08-06T12:03:48;25.00;54.90
32753;DHT22;19121;52.428;10.816;2023-08-06T12:06:14;25.00;54.80
32753;DHT22;19121;52.428;10.816;2023-08-06T12:08:39;25.10;54.90
32753;DHT22;19121;52.428;10.816;2023-08-06T12:11:06;25.10;54.90
32753;DHT22;19121;52.428;10.816;2023-08-06T12:13:32;25.00;54.90
32753;DHT22;19121;52.428;10.816;2023-08-06T12:15:57;25.10;54.90
32753;DHT22;19121;52.428;10.816;2023-08-06T12:18:23;25.10;54.90
32753;DHT22;19121;52.428;10.816;2023-08-06T12:20:48;25.10;55.50
32753;DHT22;19121;52.428;10.816;2023-08-06T12:23:14;25.10;54.90
32753;DHT22;19121;52.428;10.816;2023-08-06T12:25:41;25.10;54.80
32753;DHT22;19121;52.428;10.816;2023-08-06T12:28:06;25.10;54.80
32753;DHT22;19121;52.428;10.816;2023-08-06T12:30:33;25.10;54.80
32753;DHT22;19121;52.428;10.816;2023-08-06T12:32:58;25.10;54.80
32753;DHT22;19121;52.428;10.816;2023-08-06T12:35:23;25.10;54.80
32753;DHT22;19121;52.428;10.816;2023-08-06T12:37:50;25.10;54.80
32753;DHT22;19121;52.428;10.816;2023-08-06T12:40:19;25.10;54.80
32753;DHT22;19121;52.428;10.816;2023-08-06T12:42:45;25.10;54.80
32753;DHT22;19121;52.428;10.816;2023-08-06T12:45:11;25.20;54.90
32753;DHT22;19121;52.428;10.816;2023-08-06T12:47:36;25.20;54.90
32753;DHT22;19121;52.428;10.816;2023-08-06T12:50:02;25.10;54.80
32753;DHT22;19121;52.428;10.816;2023-08-06T12:52:27;25.20;54.90
32753;DHT22;19121;52.428;10.816;2023-08-06T12:54:52;25.10;54.80
32753;DHT22;19121;52.428;10.816;2023-08-06T12:57:18;25.10;54.80
32753;DHT22;19121;52.428;10.816;2023-08-06T12:59:43;25.20;54.80
32753;DHT22;19121;52.428;10.816;2023-08-06T13:02:09;25.20;55.50
32753;DHT22;19121;52.428;10.816;2023-08-06T13:04:34;25.20;54.90
32753;DHT22;19121;52.428;10.816;2023-08-06T13:07:00;25.20;54.90
32753;DHT22;19121;52.428;10.816;2023-08-06T13:09:25;25.20;54.90
32753;DHT22;19121;52.428;10.816;2023-08-06T13:11:52;25.20;54.90
32753;DHT22;19121;52.428;10.816;2023-08-06T13:14:18;25.20;54.90
32753;DHT22;19121;52.428;10.816;2023-08-06T13:16:43;25.20;54.80
32753;DHT22;19121;52.428;10.816;2023-08-06T13:19:10;25.20;54.80
32753;DHT22;19121;52.428;10.816;2023-08-06T13:22:21;25.20;54.80
32753;DHT22;19121;52.428;10.816;2023-08-06T13:24:21;25.20;54.80
32753;DHT22;19121;52.428;10.816;2023-08-06T13:26:46;25.20;54.80
32753;DHT22;19121;52.428;10.816;2023-08-06T13:29:12;25.30;54.90
32753;DHT22;19121;52.428;10.816;2023-08-06T13:31:37;25.30;55.00
32753;DHT22;19121;52.428;10.816;2023-08-06T13:34:03;25.30;54.90
32753;DHT22;19121;52.428;10.816;2023-08-06T13:36:28;25.30;54.90
32753;DHT22;19121;52.428;10.816;2023-08-06T13:38:54;25.30;54.80
32753;DHT22;19121;52.428;10.816;2023-08-06T13:41:20;25.30;54.80
32753;DHT22;19121;52.428;10.816;2023-08-06T13:43:45;25.30;54.90
32753;DHT22;19121;52.428;10.816;2023-08-06T13:46:11;25.30;54.80
32753;DHT22;19121;52.428;10.816;2023-08-06T13:48:45;25.30;54.80
32753;DHT22;19121;52.428;10.816;2023-08-06T13:51:11;25.30;54.80
32753;DHT22;19121;52.428;10.816;2023-08-06T13:53:37;25.30;54.80
32753;DHT22;19121;52.428;10.816;2023-08-06T13:56:02;25.30;54.80
32753;DHT22;19121;52.428;10.816;2023-08-06T13:58:28;25.30;54.80
32753;DHT22;19121;52.428;10.816;2023-08-06T14:00:53;25.30;54.80
32753;DHT22;19121;52.428;10.816;2023-08-06T14:03:19;25.30;54.70
32753;DHT22;19121;52.428;10.816;2023-08-06T14:05:45;25.30;54.70
32753;DHT22;19121;52.428;10.816;2023-08-06T14:08:10;25.30;54.70
32753;DHT22;19121;52.428;10.816;2023-08-06T14:10:36;25.30;54.70
32753;DHT22;19121;52.428;10.816;2023-08-06T14:13:01;25.30;54.70
32753;DHT22;19121;52.428;10.816;2023-08-06T14:15:27;25.30;54.70
32753;DHT22;19121;52.428;10.816;2023-08-06T14:17:52;25.30;54.70
32753;DHT22;19121;52.428;10.816;2023-08-06T14:20:17;25.30;54.70
32753;DHT22;19121;52.428;10.816;2023-08-06T14:22:43;25.30;54.70
32753;DHT22;19121;52.428;10.816;2023-08-06T14:25:08;25.30;54.70
32753;DHT22;19121;52.428;10.816;2023-08-06T14:27:34;25.30;54.70
32753;DHT22;19121;52.428;10.816;2023-08-06T14:30:00;25.30;54.70
32753;DHT22;19121;52.428;10.816;2023-08-06T14:32:25;25.30;54.70
32753;DHT22;19121;52.428;10.816;2023-08-06T14:34:51;25.30;54.70
32753;DHT22;19121;52.428;10.816;2023-08-06T14:37:17;25.30;54.70
32753;DHT22;19121;52.428;10.816;2023-08-06T14:39:42;25.30;54.70
32753;DHT22;19121;52.428;10.816;2023-08-06T14:42:08;25.30;54.70
32753;DHT22;19121;52.428;10.816;2023-08-06T14:44:33;25.30;54.60
32753;DHT22;19121;52.428;10.816;2023-08-06T14:46:59;25.30;54.70
32753;DHT22;19121;52.428;10.816;2023-08-06T14:49:24;25.30;54.70
32753;DHT22;19121;52.428;10.816;2023-08-06T14:51:50;25.30;54.70
32753;DHT22;19121;52.428;10.816;2023-08-06T14:54:15;25.30;54.70
32753;DHT22;19121;52.428;10.816;2023-08-06T14:56:40;25.30;54.60
32753;DHT22;19121;52.428;10.816;2023-08-06T14:59:06;25.30;54.70
32753;DHT22;19121;52.428;10.816;2023-08-06T15:01:31;25.30;54.60
32753;DHT22;19121;52.428;10.816;2023-08-06T15:03:57;25.30;54.60
32753;DHT22;19121;52.428;10.816;2023-08-06T15:06:22;25.30;54.60
32753;DHT22;19121;52.428;10.816;2023-08-06T15:08:48;25.30;54.70
32753;DHT22;19121;52.428;10.816;2023-08-06T15:11:13;25.30;54.70
32753;DHT22;19121;52.428;10.816;2023-08-06T15:13:39;25.30;54.70